Date,TemperatureHighF,TemperatureAvgF,TemperatureLowF,DewpointHighF,DewpointAvgF,DewpointLowF,HumidityHigh,HumidityAvg,HumidityLow,PressureMaxIn,PressureMinIn,WindSpeedMaxMPH,WindSpeedAvgMPH,GustSpeedMaxMPH,PrecipitationSumIn
2013-8-1,81.0,69.8,62.0,57.0,54.6,50.0,80,60,37,30.37,30.24,10,3,21,0.01
2013-8-2,80.0,68.7,59.0,59.0,55.0,52.0,84,63,41,30.33,30.25,10,4,22,0.11
2013-8-3,80.0,70.7,56.0,58.0,54.1,49.0,86,58,34,30.36,30.30,11,4,21,0.05
2013-8-4,80.0,66.9,59.0,60.0,53.7,47.0,88,66,33,30.37,30.31,11,3,19,0.09
2013-8-5,80.0,66.5,52.0,54.0,48.5,42.0,90,56,29,30.37,30.25,11,2,17,0.01
2013-8-6,69.0,63.0,60.0,57.0,49.8,44.0,87,63,41,30.37,30.25,9,2,18,0.07
2013-8-7,73.0,63.3,53.0,57.0,50.5,48.0,95,65,42,30.34,30.25,13,4,23,0.06
2013-8-8,79.0,69.5,53.0,48.0,38.9,32.0,71,36,20,30.29,30.19,7,3,14,0.03
2013-8-9,80.0,67.7,51.0,42.0,33.8,26.0,58,32,14,30.31,30.22,11,3,21,0.01
2013-8-10,78.0,65.9,51.0,50.0,38.4,32.0,65,40,20,30.39,30.28,10,3,19,0.00
2013-8-11,76.0,62.4,47.0,53.0,48.2,43.0,93,63,33,30.39,30.26,13,2,22,0.00
2013-8-12,81.0,65.1,48.0,56.0,44.8,35.0,96,57,20,30.36,30.24,8,2,17,0.02
2013-8-13,83.0,67.7,48.0,49.0,35.7,-99.9,76,37,14,30.37,30.27,8,2,18,0.01
2013-8-14,84.0,71.6,50.0,47.0,41.8,34.0,68,36,24,30.38,30.25,8,2,17,0.00
2013-8-15,76.0,61.6,61.0,54.0,29.4,-99.9,67,44,33,30.41,30.30,13,3,21,0.03
2013-8-16,84.0,65.8,52.0,62.0,46.1,-99.9,84,56,25,30.40,30.33,7,1,18,0.09
2013-8-17,83.0,66.4,59.0,57.0,50.0,-99.9,86,60,28,30.43,30.32,15,3,28,0.10
2013-8-18,80.0,67.3,57.0,56.0,52.1,48.0,81,60,36,30.39,30.28,14,2,20,0.10
2013-8-19,79.0,63.4,54.0,57.0,35.9,-99.9,83,51,36,30.38,30.27,7,2,18,0.02
2013-8-20,83.0,68.3,49.0,55.0,45.5,-99.9,88,51,26,30.32,30.22,11,3,18,0.01
2013-8-21,78.0,68.7,59.0,58.0,52.3,47.0,87,58,35,30.37,30.26,17,4,25,0.17
2013-8-22,78.0,67.4,54.0,55.0,52.6,48.0,90,61,37,30.37,30.23,8,2,17,0.04
2013-8-23,79.0,66.0,50.0,55.0,51.1,46.0,92,61,33,30.28,30.18,9,3,19,0.00
2013-8-24,72.0,62.3,52.0,55.0,49.2,-99.9,90,66,45,30.33,30.22,7,2,18,0.01
2013-8-25,66.0,60.9,57.0,58.0,55.7,52.0,95,84,65,30.39,30.29,9,2,15,0.16
2013-8-26,67.0,60.3,57.0,63.0,58.5,53.0,96,93,83,30.40,30.30,10,1,17,0.10
2013-8-27,71.0,59.8,51.0,60.0,55.8,50.0,98,88,65,30.36,30.29,9,2,12,0.05
2013-8-28,79.0,72.3,61.0,58.0,53.1,45.0,76,53,32,30.35,30.26,12,4,19,0.03
2013-8-29,78.0,70.0,59.0,62.0,57.5,52.0,86,66,49,30.43,30.32,12,4,19,0.02
2013-8-30,75.0,65.3,58.0,62.0,58.4,55.0,92,79,53,30.42,30.30,8,2,17,0.02
2013-8-31,71.0,61.6,57.0,62.0,56.6,-99.9,96,87,70,30.35,30.24,12,2,19,0.02